Time;durP1;ratioP1;P1;durP2;ratioP2;P2;SDS_P1;SDS_P2;PMS_P1;PMS_P2;Temp;Humidity;BMP_temperature;BMP_pressure;BME280_temperature;BME280_humidity;BME280_pressure;Samples;Min_cycle;Max_cycle;Signal;HPM_P1;HPM_P2
2023/01/09 00:01:13;;;;;;;12.23;8.07;;;;;;;10.72;61.96;99701.94;4930617;28;97980;-70
2023/01/09 00:03:40;;;;;;;14.27;8.40;;;;;;;10.85;61.39;99714.50;4934977;28;96897;-70
2023/01/09 00:06:07;;;;;;;15.93;8.85;;;;;;;10.72;61.91;99706.34;4939249;28;99226;-69
2023/01/09 00:08:33;;;;;;;14.02;8.70;;;;;;;10.90;61.11;99707.16;4928709;28;98910;-68
2023/01/09 00:10:59;;;;;;;14.43;8.77;;;;;;;10.61;61.84;99704.28;4928552;28;97623;-68
2023/01/09 00:13:26;;;;;;;14.18;8.70;;;;;;;10.68;61.41;99703.03;4934836;28;97253;-69
2023/01/09 00:15:52;;;;;;;13.02;8.43;;;;;;;10.68;61.74;99695.09;4937703;28;98367;-68
2023/01/09 00:18:20;;;;;;;11.27;8.10;;;;;;;10.48;61.98;99694.44;4930466;28;98871;-69
2023/01/09 00:20:46;;;;;;;15.07;7.80;;;;;;;10.66;61.59;99694.31;4934707;28;96819;-70
2023/01/09 00:23:13;;;;;;;11.88;8.20;;;;;;;10.52;61.77;99691.53;4938010;28;96956;-70
2023/01/09 00:25:39;;;;;;;13.50;8.75;;;;;;;10.32;62.32;99691.72;4935673;28;100030;-70
2023/01/09 00:28:06;;;;;;;11.35;7.85;;;;;;;10.23;62.49;99686.91;4933122;28;98835;-70
2023/01/09 00:30:32;;;;;;;12.45;8.75;;;;;;;10.32;62.66;99681.16;4931166;28;97642;-70
2023/01/09 00:32:59;;;;;;;14.15;9.13;;;;;;;10.12;63.18;99681.28;4937972;28;98662;-70
2023/01/09 00:35:28;;;;;;;14.35;8.32;;;;;;;10.31;62.61;99674.16;4931840;28;98992;-69
2023/01/09 00:37:55;;;;;;;13.00;8.80;;;;;;;10.31;62.32;99671.50;4935090;28;98062;-71
2023/01/09 00:40:21;;;;;;;15.52;9.48;;;;;;;10.27;62.31;99668.19;4933464;28;98740;-69
2023/01/09 00:42:51;;;;;;;13.68;8.65;;;;;;;10.11;62.94;99669.03;4937048;28;98608;-70
2023/01/09 00:45:20;;;;;;;14.35;8.73;;;;;;;10.26;62.39;99663.84;4939870;28;99260;-71
2023/01/09 00:47:49;;;;;;;18.58;8.50;;;;;;;10.15;62.91;99662.66;4932305;28;101519;-71
2023/01/09 00:50:20;;;;;;;12.88;8.70;;;;;;;10.03;62.92;99671.19;4939167;28;97175;-71
2023/01/09 00:52:50;;;;;;;14.43;8.90;;;;;;;10.18;62.52;99659.88;4946216;28;97436;-71
2023/01/09 00:55:17;;;;;;;15.50;9.63;;;;;;;10.20;62.45;99650.94;4939603;28;98873;-69
2023/01/09 00:57:43;;;;;;;13.70;9.25;;;;;;;10.38;62.00;99650.00;4935412;28;100216;-69
2023/01/09 01:00:11;;;;;;;14.07;9.35;;;;;;;10.10;62.47;99649.69;4930131;28;96817;-69
2023/01/09 01:02:38;;;;;;;14.13;9.20;;;;;;;10.13;62.05;99640.75;4936013;28;101246;-69
2023/01/09 01:07:50;;;;;;;15.48;9.48;;;;;;;10.20;62.07;99634.25;4937789;28;97121;-70
2023/01/09 01:10:19;;;;;;;14.93;9.40;;;;;;;10.02;62.32;99643.09;4933706;28;97162;-71
2023/01/09 01:12:47;;;;;;;15.38;10.13;;;;;;;10.15;62.22;99641.53;4937444;28;97157;-70
2023/01/09 01:15:14;;;;;;;14.95;9.48;;;;;;;10.13;61.86;99643.38;4932515;28;99333;-70
2023/01/09 01:17:41;;;;;;;15.85;10.05;;;;;;;9.92;62.48;99640.91;4929057;28;97824;-70
2023/01/09 01:20:10;;;;;;;15.85;10.20;;;;;;;10.02;62.53;99645.72;4935102;28;96809;-71
2023/01/09 01:22:37;;;;;;;14.38;9.77;;;;;;;10.00;62.54;99635.25;4933246;28;96945;-71
2023/01/09 01:25:05;;;;;;;13.65;9.15;;;;;;;10.07;62.04;99638.41;4938247;28;99230;-70
2023/01/09 01:27:32;;;;;;;15.65;10.02;;;;;;;10.07;61.78;99628.72;4934737;28;98851;-69
2023/01/09 01:29:58;;;;;;;16.60;10.57;;;;;;;10.11;61.68;99634.72;4934349;28;98143;-71
2023/01/09 01:32:24;;;;;;;18.27;10.18;;;;;;;10.02;61.74;99627.25;4934889;28;97676;-70
2023/01/09 01:34:51;;;;;;;15.27;9.70;;;;;;;10.12;61.90;99621.41;4932097;28;99013;-70
2023/01/09 01:37:17;;;;;;;15.43;10.93;;;;;;;10.22;61.36;99627.97;4933823;28;99274;-70
2023/01/09 01:39:44;;;;;;;14.82;9.65;;;;;;;10.21;61.35;99631.53;4936718;28;96789;-71
2023/01/09 01:42:14;;;;;;;15.45;10.02;;;;;;;10.03;61.73;99631.59;4933166;28;98974;-69
2023/01/09 01:45:00;;;;;;;16.27;9.93;;;;;;;10.12;61.50;99621.41;4936082;28;101514;-70
2023/01/09 01:47:36;;;;;;;17.23;10.70;;;;;;;10.08;61.48;99619.03;4928510;28;98957;-70
2023/01/09 01:50:08;;;;;;;16.70;9.80;;;;;;;10.07;61.59;99612.03;4939865;28;97319;-69
2023/01/09 01:52:35;;;;;;;15.65;9.98;;;;;;;10.20;61.15;99597.31;4930923;28;98654;-69
2023/01/09 01:55:04;;;;;;;14.77;10.60;;;;;;;10.04;61.58;99596.38;4939803;28;98884;-71
2023/01/09 01:57:33;;;;;;;16.08;10.32;;;;;;;9.88;62.08;99597.13;4933319;28;97752;-69
2023/01/09 02:00:02;;;;;;;18.65;10.77;;;;;;;10.03;62.17;99587.59;4932553;28;96685;-69
2023/01/09 02:02:31;;;;;;;15.45;10.15;;;;;;;10.03;61.16;99584.09;4935508;28;96753;-69
2023/01/09 02:04:59;;;;;;;19.27;10.60;;;;;;;10.04;61.32;99588.44;4938068;28;101817;-70
2023/01/09 02:07:26;;;;;;;16.35;10.32;;;;;;;9.92;62.09;99582.84;4931127;28;102611;-70
2023/01/09 02:09:53;;;;;;;16.15;10.60;;;;;;;10.00;61.67;99588.59;4929093;28;98579;-70
2023/01/09 02:12:23;;;;;;;19.33;12.15;;;;;;;10.06;61.62;99583.91;4933604;28;97392;-69
2023/01/09 02:14:53;;;;;;;17.45;11.27;;;;;;;9.96;61.23;99584.41;4929473;28;99025;-69
2023/01/09 02:17:37;;;;;;;16.98;11.50;;;;;;;10.18;61.05;99584.16;4934653;28;99171;-69
2023/01/09 02:20:32;;;;;;;17.65;11.95;;;;;;;9.96;61.54;99584.41;4925451;28;97137;-69
2023/01/09 02:23:17;;;;;;;16.67;11.45;;;;;;;9.96;61.17;99587.06;4934976;28;97816;-69
2023/01/09 02:26:18;;;;;;;17.95;11.68;;;;;;;9.85;61.88;99593.78;4936986;28;98950;-71
2023/01/09 02:29:21;;;;;;;17.63;11.07;;;;;;;9.74;62.12;99582.94;4936746;28;100684;-70
2023/01/09 02:31:53;;;;;;;17.83;11.50;;;;;;;9.66;62.33;99585.94;4914466;28;98735;-69
2023/01/09 02:34:26;;;;;;;17.88;11.35;;;;;;;9.97;61.66;99580.84;4938553;28;96987;-71
2023/01/09 02:37:00;;;;;;;18.38;12.02;;;;;;;9.93;61.60;99578.41;4936780;28;102048;-70
2023/01/09 02:39:32;;;;;;;16.73;11.65;;;;;;;9.83;62.25;99585.97;4940060;28;99536;-70
2023/01/09 02:42:03;;;;;;;18.88;11.95;;;;;;;9.75;62.03;99585.50;4929657;28;97981;-70
2023/01/09 02:44:34;;;;;;;20.98;12.30;;;;;;;9.55;62.70;99593.56;4935734;28;98683;-70
2023/01/09 02:47:04;;;;;;;19.05;12.02;;;;;;;9.56;62.78;99593.47;4934471;28;99210;-69
2023/01/09 02:49:33;;;;;;;18.27;12.60;;;;;;;9.57;62.75;99583.78;4936379;28;100284;-70
2023/01/09 02:52:13;;;;;;;21.00;12.40;;;;;;;9.51;62.97;99590.22;4929330;28;97307;-70
2023/01/09 02:54:51;;;;;;;20.67;12.90;;;;;;;9.48;62.85;99577.19;4940170;28;97126;-71
2023/01/09 02:57:36;;;;;;;19.60;12.48;;;;;;;9.72;62.19;99587.41;4933581;28;98924;-70
2023/01/09 03:00:10;;;;;;;22.13;12.70;;;;;;;9.74;62.00;99594.34;4928773;28;98077;-71
2023/01/09 03:02:47;;;;;;;19.05;12.50;;;;;;;9.49;62.97;99584.16;4935403;28;96983;-70
2023/01/09 03:05:21;;;;;;;21.33;13.38;;;;;;;9.64;62.30;99582.56;4935225;28;96952;-70
2023/01/09 03:07:54;;;;;;;21.38;13.10;;;;;;;9.48;62.57;99584.22;4934398;28;98933;-69
2023/01/09 03:10:27;;;;;;;20.13;12.38;;;;;;;9.47;62.48;99575.47;4925982;28;97415;-69
2023/01/09 03:12:55;;;;;;;20.38;12.75;;;;;;;9.77;61.59;99578.38;4932435;28;97806;-70
2023/01/09 03:15:27;;;;;;;22.05;12.77;;;;;;;9.82;61.59;99567.56;4924637;28;96983;-71
2023/01/09 03:17:57;;;;;;;19.98;12.80;;;;;;;9.71;61.49;99570.75;4930235;28;99193;-71
2023/01/09 03:20:27;;;;;;;19.67;12.40;;;;;;;9.70;61.95;99571.69;4923787;28;98753;-71
2023/01/09 03:22:55;;;;;;;20.75;12.63;;;;;;;9.78;61.27;99564.22;4930404;28;96850;-69
2023/01/09 03:25:22;;;;;;;21.70;13.30;;;;;;;9.61;62.02;99551.03;4935531;28;96951;-70
2023/01/09 03:27:54;;;;;;;22.70;12.95;;;;;;;9.98;60.98;99550.00;4933333;28;101067;-71
2023/01/09 03:30:20;;;;;;;23.83;13.82;;;;;;;9.99;60.90;99549.06;4936431;28;99683;-71
2023/01/09 03:32:46;;;;;;;22.33;13.57;;;;;;;10.02;61.02;99548.06;4932643;28;96956;-70
2023/01/09 03:35:14;;;;;;;18.92;12.27;;;;;;;10.22;60.51;99542.66;4940129;28;98857;-71
2023/01/09 03:37:41;;;;;;;18.23;12.32;;;;;;;10.14;60.30;99542.16;4934394;28;98104;-70
2023/01/09 03:40:08;;;;;;;23.42;12.45;;;;;;;10.05;60.66;99538.19;4937027;28;98749;-69
2023/01/09 03:42:35;;;;;;;19.40;12.25;;;;;;;10.30;60.21;99525.47;4935055;28;97957;-70
2023/01/09 03:45:01;;;;;;;21.83;13.13;;;;;;;10.21;60.04;99525.09;4940801;28;96974;-70
2023/01/09 03:47:28;;;;;;;20.75;13.27;;;;;;;10.10;60.20;99522.16;4936556;28;98914;-71
2023/01/09 03:49:54;;;;;;;26.65;13.80;;;;;;;10.10;60.68;99517.72;4941142;28;99313;-69
2023/01/09 03:52:22;;;;;;;21.45;12.82;;;;;;;10.19;60.13;99524.31;4935129;28;96756;-71
2023/01/09 03:54:48;;;;;;;26.17;12.73;;;;;;;10.21;59.67;99515.38;4937021;28;96813;-71
2023/01/09 03:57:15;;;;;;;20.60;12.95;;;;;;;10.31;59.69;99515.72;4934648;28;97622;-71
2023/01/09 03:59:41;;;;;;;18.85;13.30;;;;;;;10.30;59.78;99524.63;4940542;28;99148;-71
2023/01/09 04:02:08;;;;;;;19.85;13.13;;;;;;;10.48;59.25;99520.97;4938755;28;97196;-71
2023/01/09 04:04:35;;;;;;;19.92;13.15;;;;;;;10.30;59.85;99514.06;4934429;28;97650;-71
2023/01/09 04:07:01;;;;;;;21.02;12.52;;;;;;;10.25;60.22;99511.63;4942709;28;99205;-71
2023/01/09 04:09:29;;;;;;;18.35;12.23;;;;;;;10.39;59.61;99509.09;4933344;28;99180;-70
2023/01/09 04:11:56;;;;;;;21.00;12.85;;;;;;;10.26;60.14;99507.22;4938120;28;96803;-70
2023/01/09 04:14:22;;;;;;;20.50;12.82;;;;;;;10.17;60.36;99502.44;4935425;28;97307;-70
2023/01/09 04:16:49;;;;;;;20.42;13.75;;;;;;;10.25;60.40;99501.06;4933633;28;99285;-71
2023/01/09 04:19:15;;;;;;;17.70;12.13;;;;;;;10.28;60.05;99498.28;4938707;28;98895;-70
2023/01/09 04:21:41;;;;;;;20.95;12.93;;;;;;;10.44;59.52;99490.38;4925180;28;96838;-70
2023/01/09 04:24:08;;;;;;;20.83;12.95;;;;;;;10.47;59.66;99494.63;4935627;28;96823;-70
2023/01/09 04:26:36;;;;;;;20.58;13.45;;;;;;;10.46;59.23;99492.94;4930903;28;100536;-70
2023/01/09 04:29:02;;;;;;;27.80;15.57;;;;;;;10.38;59.58;99488.91;4943746;28;98758;-70
2023/01/09 04:31:29;;;;;;;22.92;13.80;;;;;;;10.53;59.40;99483.72;4927682;28;96874;-69
2023/01/09 04:33:55;;;;;;;19.65;13.10;;;;;;;10.53;59.29;99489.03;4941308;28;97874;-70
2023/01/09 04:36:22;;;;;;;20.70;12.60;;;;;;;10.70;59.26;99481.84;4936893;28;99028;-71
2023/01/09 04:38:48;;;;;;;20.30;13.15;;;;;;;10.53;59.67;99483.72;4941948;28;98959;-70
2023/01/09 04:41:47;;;;;;;21.98;12.80;;;;;;;10.33;59.86;99483.03;4932521;28;97166;-70
2023/01/09 04:44:04;;;;;;;20.02;12.40;;;;;;;10.51;59.67;99478.53;4940210;28;97352;-70
2023/01/09 04:46:31;;;;;;;22.65;12.38;;;;;;;10.43;59.74;99472.84;4936786;28;98979;-73
2023/01/09 04:48:57;;;;;;;19.02;12.80;;;;;;;10.40;60.16;99478.28;4934698;28;99014;-71
2023/01/09 04:51:23;;;;;;;20.27;13.20;;;;;;;10.39;60.44;99471.28;4939094;28;97468;-71
2023/01/09 04:53:50;;;;;;;20.88;13.25;;;;;;;10.44;59.90;99474.53;4932735;28;96858;-70
2023/01/09 04:56:16;;;;;;;23.27;13.52;;;;;;;10.54;60.15;99480.16;4942795;28;101178;-70
2023/01/09 04:58:42;;;;;;;19.33;12.18;;;;;;;10.42;60.46;99468.50;4935216;28;98879;-70
2023/01/09 05:01:10;;;;;;;21.30;12.38;;;;;;;10.42;60.93;99470.28;4932926;28;97898;-71
2023/01/09 05:03:37;;;;;;;22.90;13.23;;;;;;;10.46;60.72;99467.38;4934844;28;97419;-70
2023/01/09 05:06:03;;;;;;;21.75;13.07;;;;;;;10.38;60.86;99465.16;4937212;28;98411;-72
2023/01/09 05:08:30;;;;;;;21.63;13.38;;;;;;;10.41;61.26;99468.56;4935166;28;97931;-71
2023/01/09 05:10:56;;;;;;;21.08;12.98;;;;;;;10.49;61.23;99467.22;4931219;28;96920;-71
2023/01/09 05:13:23;;;;;;;21.67;13.45;;;;;;;10.46;61.44;99467.38;4941883;28;96897;-70
2023/01/09 05:15:49;;;;;;;20.17;12.90;;;;;;;10.67;60.62;99462.69;4935498;28;98959;-71
2023/01/09 05:18:20;;;;;;;21.63;13.45;;;;;;;10.52;61.66;99461.75;4930432;28;99697;-71
2023/01/09 05:20:47;;;;;;;21.25;13.05;;;;;;;10.62;61.11;99456.81;4940916;28;96799;-70
2023/01/09 05:23:14;;;;;;;19.42;12.80;;;;;;;10.81;60.55;99457.50;4939301;28;96931;-69
2023/01/09 05:25:40;;;;;;;21.17;12.90;;;;;;;10.66;60.65;99453.91;4937919;28;102371;-71
2023/01/09 05:28:07;;;;;;;20.60;12.98;;;;;;;10.65;61.65;99456.63;4932038;28;98868;-70
2023/01/09 05:30:33;;;;;;;19.65;12.32;;;;;;;10.56;61.76;99458.03;4937638;28;97535;-70
2023/01/09 05:33:00;;;;;;;20.65;13.32;;;;;;;10.66;62.34;99455.69;4933732;28;98138;-70
2023/01/09 05:35:27;;;;;;;18.83;12.57;;;;;;;10.65;62.54;99451.34;4938408;28;98506;-70
2023/01/09 05:37:54;;;;;;;19.92;12.23;;;;;;;10.54;62.71;99451.97;4931677;28;99123;-69
2023/01/09 05:40:21;;;;;;;19.58;12.60;;;;;;;10.71;62.59;99451.00;4941573;28;96663;-70
2023/01/09 05:42:47;;;;;;;18.13;11.77;;;;;;;10.72;62.64;99450.06;4933518;28;96891;-69
2023/01/09 05:45:14;;;;;;;18.13;12.18;;;;;;;10.64;63.22;99442.56;4936122;28;99168;-69
2023/01/09 05:47:40;;;;;;;20.50;12.18;;;;;;;10.61;63.73;99440.13;4936738;28;99164;-69
2023/01/09 05:50:08;;;;;;;21.65;12.73;;;;;;;10.69;63.63;99442.34;4941390;28;96775;-70
2023/01/09 05:52:36;;;;;;;19.35;12.35;;;;;;;10.66;64.28;99447.78;4934558;28;96922;-70
2023/01/09 05:55:02;;;;;;;18.92;12.52;;;;;;;10.59;64.50;99444.63;4935176;28;99495;-70
2023/01/09 05:57:29;;;;;;;20.42;12.48;;;;;;;10.72;64.12;99440.34;4929950;28;99122;-69
2023/01/09 05:59:55;;;;;;;22.10;12.38;;;;;;;10.83;64.00;99444.19;4937393;28;96794;-70
2023/01/09 06:02:22;;;;;;;23.15;13.57;;;;;;;10.81;63.86;99433.72;4931765;28;97491;-70
2023/01/09 06:04:48;;;;;;;20.55;13.35;;;;;;;10.76;64.21;99439.22;4928602;28;99861;-70
2023/01/09 06:07:15;;;;;;;24.98;12.65;;;;;;;10.69;64.36;99442.34;4933471;28;98687;-70
2023/01/09 06:09:43;;;;;;;22.98;13.70;;;;;;;10.53;65.29;99439.69;4933645;28;96730;-70
2023/01/09 06:12:09;;;;;;;23.35;13.38;;;;;;;10.33;65.69;99432.88;4935301;28;97203;-71
2023/01/09 06:14:36;;;;;;;23.80;13.25;;;;;;;10.81;64.38;99436.34;4935870;28;101863;-69
2023/01/09 06:17:03;;;;;;;24.92;13.88;;;;;;;10.82;64.25;99431.91;4938570;28;99123;-70
2023/01/09 06:19:29;;;;;;;27.58;14.98;;;;;;;10.61;65.02;99426.91;4940796;28;98562;-70
2023/01/09 06:21:55;;;;;;;23.73;14.07;;;;;;;10.48;65.54;99427.69;4927076;28;99366;-71
2023/01/09 06:24:22;;;;;;;24.55;13.73;;;;;;;10.69;64.97;99423.84;4937583;28;99299;-70
2023/01/09 06:26:50;;;;;;;26.55;13.63;;;;;;;10.81;64.53;99425.78;4938519;28;98823;-70
2023/01/09 06:29:16;;;;;;;23.95;13.25;;;;;;;10.69;64.75;99418.56;4936674;28;96841;-71
2023/01/09 06:31:43;;;;;;;24.02;14.52;;;;;;;10.59;65.47;99423.50;4929873;28;97769;-69
2023/01/09 06:34:09;;;;;;;24.05;14.27;;;;;;;10.63;64.96;99425.00;4933421;28;99679;-70
2023/01/09 06:36:36;;;;;;;21.60;13.38;;;;;;;10.84;64.09;99419.44;4929640;28;98894;-71
2023/01/09 06:39:03;;;;;;;24.58;13.38;;;;;;;10.69;64.49;99424.69;4936407;28;101414;-70
2023/01/09 06:41:32;;;;;;;26.92;15.00;;;;;;;10.84;64.24;99414.16;4935230;28;97294;-69
2023/01/09 06:44:00;;;;;;;25.02;14.18;;;;;;;10.83;64.62;99412.50;4927888;28;99201;-71
2023/01/09 06:46:26;;;;;;;24.90;14.70;;;;;;;10.83;64.15;99421.25;4922267;28;98991;-71
2023/01/09 06:48:53;;;;;;;25.77;13.82;;;;;;;10.95;63.74;99409.97;4929633;28;97754;-69
2023/01/09 06:51:19;;;;;;;21.95;14.02;;;;;;;10.88;64.00;99413.06;4930776;28;96876;-71
2023/01/09 06:53:46;;;;;;;21.98;14.10;;;;;;;11.10;63.74;99410.84;4933348;28;99851;-70
2023/01/09 06:56:12;;;;;;;21.15;13.02;;;;;;;10.97;63.62;99409.88;4931331;28;99099;-70
2023/01/09 06:58:39;;;;;;;23.98;14.20;;;;;;;11.03;63.82;99404.22;4945646;28;96782;-70
2023/01/09 07:01:08;;;;;;;23.20;13.90;;;;;;;10.96;64.18;99403.72;4936471;28;98556;-70
2023/01/09 07:03:39;;;;;;;26.08;14.77;;;;;;;11.04;64.05;99401.50;4930954;28;99452;-71
2023/01/09 07:06:08;;;;;;;27.88;14.43;;;;;;;10.72;65.19;99398.09;4944684;28;97348;-72
2023/01/09 07:08:34;;;;;;;24.85;14.18;;;;;;;10.72;64.70;99398.09;4936826;28;96890;-70
2023/01/09 07:11:01;;;;;;;23.38;13.57;;;;;;;10.89;64.66;99397.13;4945229;28;96852;-70
2023/01/09 07:13:27;;;;;;;24.38;14.05;;;;;;;10.87;64.35;99396.34;4938989;28;97686;-70
2023/01/09 07:15:54;;;;;;;22.30;13.68;;;;;;;10.74;64.71;99387.44;4943003;28;98888;-70
2023/01/09 07:18:21;;;;;;;22.75;14.10;;;;;;;10.95;64.25;99394.13;4941738;28;96872;-71
2023/01/09 07:20:48;;;;;;;20.42;13.70;;;;;;;10.86;64.63;99389.38;4944170;28;97207;-69
2023/01/09 07:23:16;;;;;;;26.58;14.90;;;;;;;10.88;64.60;99394.56;4940022;28;101270;-69
2023/01/09 07:25:43;;;;;;;22.85;13.43;;;;;;;10.85;64.69;99389.44;4935362;28;99012;-68
2023/01/09 07:28:10;;;;;;;22.73;13.88;;;;;;;10.82;64.90;99408.13;4944823;28;98457;-69
2023/01/09 07:30:37;;;;;;;21.02;13.30;;;;;;;10.98;64.22;99396.56;4939496;28;96758;-69
2023/01/09 07:33:03;;;;;;;21.95;13.57;;;;;;;10.75;65.03;99405.84;4937388;28;99308;-68
2023/01/09 07:35:33;;;;;;;27.08;13.85;;;;;;;10.92;64.40;99409.28;4933266;28;98088;-69
2023/01/09 07:38:00;;;;;;;24.40;14.55;;;;;;;10.92;64.62;99411.94;4937551;28;96891;-68
2023/01/09 07:40:26;;;;;;;24.20;13.50;;;;;;;10.87;64.77;99406.06;4939615;28;97024;-69
2023/01/09 07:42:53;;;;;;;25.58;14.05;;;;;;;10.91;64.73;99412.88;4935713;28;99091;-69
2023/01/09 07:45:20;;;;;;;26.38;14.27;;;;;;;10.85;65.21;99405.31;4937296;28;101426;-69
2023/01/09 07:47:46;;;;;;;27.83;14.38;;;;;;;10.79;65.25;99407.38;4939832;28;96835;-68
2023/01/09 07:50:13;;;;;;;25.35;13.98;;;;;;;10.82;65.33;99405.50;4941415;28;96884;-69
2023/01/09 07:52:41;;;;;;;22.33;14.02;;;;;;;10.93;65.26;99405.72;4936365;28;98871;-69
2023/01/09 07:55:09;;;;;;;25.02;14.02;;;;;;;10.82;65.75;99410.78;4942214;28;98932;-70
2023/01/09 07:57:35;;;;;;;24.05;14.63;;;;;;;10.74;65.71;99411.22;4945551;28;96774;-69
2023/01/09 08:00:05;;;;;;;26.00;14.45;;;;;;;10.75;65.72;99408.50;4935239;28;97245;-70
2023/01/09 08:02:32;;;;;;;24.48;13.32;;;;;;;10.94;65.42;99421.50;4939447;28;100468;-71
2023/01/09 08:04:58;;;;;;;25.40;14.38;;;;;;;10.83;65.34;99421.25;4943107;28;98852;-69
2023/01/09 08:07:25;;;;;;;23.10;13.68;;;;;;;10.92;65.76;99422.50;4932995;28;96690;-70
2023/01/09 08:09:53;;;;;;;28.45;14.73;;;;;;;10.93;65.58;99429.50;4944150;28;96838;-70
2023/01/09 08:12:20;;;;;;;24.30;12.90;;;;;;;10.89;65.85;99428.00;4934859;28;101758;-69
2023/01/09 08:14:46;;;;;;;21.40;13.48;;;;;;;10.78;65.76;99423.28;4940048;28;97941;-69
2023/01/09 08:17:13;;;;;;;21.17;13.57;;;;;;;10.84;66.28;99422.09;4931669;28;97181;-70
2023/01/09 08:19:42;;;;;;;25.02;13.63;;;;;;;10.70;66.60;99428.16;4941655;28;96877;-71
2023/01/09 08:22:09;;;;;;;21.00;13.13;;;;;;;10.73;67.04;99434.13;4937615;28;101108;-73
2023/01/09 08:24:36;;;;;;;27.65;13.95;;;;;;;10.86;66.39;99428.16;4933907;28;97979;-70
2023/01/09 08:27:04;;;;;;;25.45;14.30;;;;;;;11.13;65.81;99424.78;4932645;28;96727;-71
2023/01/09 08:29:31;;;;;;;23.42;13.75;;;;;;;11.04;65.68;99427.06;4938418;28;97694;-71
2023/01/09 08:31:57;;;;;;;25.27;13.73;;;;;;;10.91;65.88;99424.28;4939820;28;99117;-71
2023/01/09 08:34:24;;;;;;;19.65;12.73;;;;;;;10.77;66.58;99430.38;4933216;28;99033;-70
2023/01/09 08:36:52;;;;;;;23.70;13.43;;;;;;;10.88;66.52;99428.91;4933596;28;97042;-71
2023/01/09 08:39:18;;;;;;;28.30;14.45;;;;;;;11.10;65.91;99426.72;4932109;28;97015;-72
2023/01/09 08:47:15;;;;;;;21.95;12.82;;;;;;;11.09;65.84;99441.72;4935676;28;96715;-70
2023/01/09 08:49:41;;;;;;;21.65;12.60;;;;;;;10.94;66.38;99441.78;4935130;28;96752;-70
2023/01/09 08:52:08;;;;;;;21.73;13.00;;;;;;;10.87;66.57;99445.72;4932845;28;98913;-70
2023/01/09 08:54:35;;;;;;;21.83;12.90;;;;;;;10.98;66.80;99459.16;4940925;28;97713;-71
2023/01/09 08:57:02;;;;;;;28.38;14.63;;;;;;;11.27;65.75;99460.13;4937756;28;96968;-70
2023/01/09 08:59:29;;;;;;;27.10;13.75;;;;;;;11.34;65.20;99464.97;4945287;28;96937;-71
2023/01/09 09:01:57;;;;;;;23.98;13.85;;;;;;;11.33;65.09;99468.56;4936256;28;98809;-71
2023/01/09 09:04:23;;;;;;;23.77;12.77;;;;;;;11.07;65.40;99456.00;4936052;28;99033;-70
2023/01/09 09:06:50;;;;;;;22.38;12.68;;;;;;;10.87;66.68;99451.00;4929019;28;97055;-71
2023/01/09 09:09:16;;;;;;;25.00;13.27;;;;;;;10.68;67.30;99459.97;4938872;28;97185;-72
2023/01/09 09:11:42;;;;;;;25.13;13.90;;;;;;;11.06;66.31;99462.22;4935328;28;98911;-71
2023/01/09 09:16:54;;;;;;;24.98;13.75;;;;;;;11.25;66.04;99465.50;4935153;28;96873;-70
2023/01/09 09:19:21;;;;;;;21.15;13.65;;;;;;;11.62;64.89;99456.22;4936556;28;97809;-72
2023/01/09 09:21:48;;;;;;;22.00;13.25;;;;;;;11.63;64.95;99451.78;4935683;28;97845;-71
2023/01/09 09:24:14;;;;;;;27.58;14.10;;;;;;;11.71;64.37;99449.53;4934214;28;98889;-71
2023/01/09 09:26:41;;;;;;;22.23;13.00;;;;;;;11.74;64.43;99460.84;4940671;28;96936;-71
2023/01/09 09:29:07;;;;;;;24.48;13.23;;;;;;;11.62;64.64;99474.75;4937887;28;96881;-71
2023/01/09 09:31:33;;;;;;;24.42;13.68;;;;;;;11.54;65.24;99469.94;4939168;28;99335;-71
2023/01/09 09:34:01;;;;;;;23.10;12.13;;;;;;;11.22;65.63;99478.91;4930118;28;99283;-70
2023/01/09 09:36:28;;;;;;;23.00;13.60;;;;;;;11.02;66.81;99477.41;4928908;28;97519;-71
2023/01/09 09:38:55;;;;;;;22.60;12.13;;;;;;;11.17;66.40;99475.66;4930122;28;96837;-71
2023/01/09 09:44:46;;;;;;;20.33;10.88;;;;;;;11.33;66.75;99478.28;4936391;28;97450;-70
2023/01/09 09:47:22;;;;;;;19.92;11.15;;;;;;;11.59;66.01;99480.22;4934784;28;97126;-70
2023/01/09 09:49:55;;;;;;;;;;;;;;;11.75;65.24;99481.03;4941585;28;96753;-71
2023/01/09 09:52:30;;;;;;;17.30;10.60;;;;;;;11.80;64.99;99478.13;4937028;28;99371;-71
2023/01/09 09:55:02;;;;;;;18.85;11.45;;;;;;;12.06;64.02;99488.00;4940363;28;98858;-71
2023/01/09 09:57:34;;;;;;;16.85;10.40;;;;;;;12.04;64.02;99487.22;4937040;28;96871;-72
2023/01/09 10:00:02;;;;;;;19.90;10.73;;;;;;;12.04;64.13;99495.16;4941488;28;96736;-73
2023/01/09 10:02:31;;;;;;;21.35;11.57;;;;;;;12.13;63.99;99491.97;4941349;28;97616;-71
2023/01/09 10:05:05;;;;;;;18.25;11.13;;;;;;;12.15;64.20;99498.00;4935863;28;99210;-70
2023/01/09 10:07:40;;;;;;;18.85;10.05;;;;;;;12.13;64.30;99499.06;4936341;28;97569;-70
2023/01/09 10:10:14;;;;;;;18.90;10.52;;;;;;;12.14;64.40;99493.63;4936623;28;97195;-70
2023/01/09 10:12:48;;;;;;;18.88;10.48;;;;;;;12.23;64.03;99498.38;4932309;28;98155;-70
2023/01/09 10:15:18;;;;;;;17.58;9.25;;;;;;;12.32;63.78;99500.47;4936272;28;97517;-71
2023/01/09 10:17:55;;;;;;;15.27;9.55;;;;;;;12.33;63.97;99496.03;4941796;28;97185;-71
2023/01/09 10:20:43;;;;;;;16.77;9.80;;;;;;;12.42;63.79;99498.09;4932119;28;97189;-71
2023/01/09 10:23:24;;;;;;;16.98;9.23;;;;;;;12.48;63.55;99497.69;4927687;28;101420;-71
2023/01/09 10:25:55;;;;;;;13.88;8.55;;;;;;;12.33;64.08;99503.97;4931318;28;98800;-71
2023/01/09 10:28:37;;;;;;;13.82;8.80;;;;;;;12.37;64.10;99503.69;4938842;28;97628;-71
2023/01/09 10:31:16;;;;;;;12.52;7.65;;;;;;;12.22;64.37;99507.25;4932882;28;96828;-71
2023/01/09 10:33:54;;;;;;;13.40;8.10;;;;;;;12.11;64.53;99517.69;4938016;28;99341;-71
2023/01/09 10:36:42;;;;;;;12.82;8.18;;;;;;;12.21;64.67;99515.31;4934737;28;101799;-71
2023/01/09 10:39:17;;;;;;;41.55;9.23;;;;;;;12.20;64.65;99521.56;4945712;28;97209;-70
2023/01/09 10:41:55;;;;;;;11.50;7.30;;;;;;;12.47;64.20;99525.13;4946453;28;96776;-70
2023/01/09 10:44:28;;;;;;;10.38;7.18;;;;;;;12.29;64.41;99521.84;4941354;28;99053;-71
2023/01/09 10:46:56;;;;;;;16.58;8.18;;;;;;;12.08;65.19;99527.63;4945175;28;100247;-71
2023/01/09 10:49:24;;;;;;;21.58;7.90;;;;;;;12.50;64.26;99521.44;4944241;28;96904;-71
2023/01/09 10:52:04;;;;;;;14.23;7.57;;;;;;;12.22;64.46;99520.50;4946777;28;96842;-71
2023/01/09 10:54:31;;;;;;;12.20;6.50;;;;;;;11.98;66.17;99524.66;4928750;28;99351;-72
2023/01/09 10:57:06;;;;;;;10.73;7.18;;;;;;;11.96;66.07;99535.34;4938684;28;99138;-70
2023/01/09 10:59:32;;;;;;;11.77;6.85;;;;;;;12.19;65.42;99530.47;4939758;28;97051;-71
2023/01/09 11:01:59;;;;;;;9.38;6.85;;;;;;;12.01;65.80;99539.53;4940587;28;97540;-71
2023/01/09 11:04:29;;;;;;;11.68;6.88;;;;;;;11.97;66.14;99538.84;4934157;28;99411;-71
2023/01/09 11:07:01;;;;;;;11.48;6.57;;;;;;;12.12;66.17;99540.56;4936578;28;98838;-70
2023/01/09 11:09:28;;;;;;;11.55;6.72;;;;;;;12.31;65.41;99551.75;4930935;28;98715;-70
2023/01/09 11:11:54;;;;;;;8.95;5.78;;;;;;;12.30;65.06;99554.47;4930133;28;96830;-69
2023/01/09 11:14:26;;;;;;;8.82;5.95;;;;;;;12.27;65.24;99550.22;4936681;28;98914;-70
2023/01/09 11:16:54;;;;;;;10.75;6.50;;;;;;;12.51;64.35;99547.00;4943812;28;101734;-70
2023/01/09 11:19:21;;;;;;;7.80;5.90;;;;;;;12.47;64.28;99550.81;4941923;28;97168;-70
2023/01/09 11:21:48;;;;;;;9.20;5.88;;;;;;;12.35;64.54;99550.59;4947079;28;96816;-69
2023/01/09 11:24:34;;;;;;;6.80;5.18;;;;;;;12.32;64.54;99557.88;4939631;28;97925;-69
2023/01/09 11:27:24;;;;;;;6.97;5.00;;;;;;;12.28;65.02;99562.50;4937708;28;98869;-71
2023/01/09 11:30:13;;;;;;;9.43;5.00;;;;;;;12.09;65.04;99561.06;4939237;28;97104;-69
2023/01/09 11:32:40;;;;;;;6.10;4.20;;;;;;;11.78;65.83;99570.00;4936841;28;96892;-69
2023/01/09 11:35:15;;;;;;;6.35;4.38;;;;;;;11.95;65.69;99577.78;4936395;28;99125;-70
2023/01/09 11:37:42;;;;;;;6.78;4.38;;;;;;;12.21;65.08;99581.50;4941008;28;99024;-69
2023/01/09 11:40:17;;;;;;;9.55;5.40;;;;;;;12.37;64.44;99580.50;4937716;28;97239;-70
2023/01/09 11:43:11;;;;;;;7.72;4.63;;;;;;;12.07;63.64;99585.00;4937727;28;97339;-69